Time;durP1;ratioP1;P1;durP2;ratioP2;P2;SDS_P1;SDS_P2;PMS_P1;PMS_P2;Temp;Humidity;BMP_temperature;BMP_pressure;BME280_temperature;BME280_humidity;BME280_pressure;Samples;Min_cycle;Max_cycle;Signal;HPM_P1;HPM_P2
2022/08/05 00:01:58;;;;;;;14.23;10.07;;;;;;;20.94;74.90;101060.81;4979305;28;20256;-66
2022/08/05 00:04:23;;;;;;;10.77;9.10;;;;;;;21.16;73.63;101064.56;4978774;28;20542;-65
2022/08/05 00:06:48;;;;;;;11.70;8.67;;;;;;;20.86;75.09;101068.97;4980774;28;20203;-66
2022/08/05 00:09:14;;;;;;;12.27;8.30;;;;;;;21.02;74.11;101072.91;4981937;28;20258;-65
2022/08/05 00:11:39;;;;;;;9.23;8.33;;;;;;;21.18;72.85;101073.34;4982520;28;20206;-66
2022/08/05 00:14:04;;;;;;;10.40;8.50;;;;;;;21.16;71.67;101075.19;4982479;28;20240;-66
2022/08/05 00:16:30;;;;;;;11.57;7.53;;;;;;;20.90;72.61;101080.34;4982959;28;20473;-66
2022/08/05 00:18:55;;;;;;;9.63;8.57;;;;;;;21.35;71.22;101071.97;4982308;28;20202;-65
2022/08/05 00:21:21;;;;;;;8.60;7.30;;;;;;;21.60;70.40;101073.91;4982337;28;20183;-64
2022/08/05 00:23:47;;;;;;;7.33;6.63;;;;;;;20.91;70.28;101079.44;4982716;28;20542;-66
2022/08/05 00:26:12;;;;;;;9.60;7.27;;;;;;;21.18;70.38;101081.28;4982143;28;20409;-65
2022/08/05 00:28:38;;;;;;;7.77;6.77;;;;;;;21.12;69.65;101078.84;4982242;28;20420;-65
2022/08/05 00:31:04;;;;;;;7.10;6.27;;;;;;;21.43;68.04;101075.25;4981159;28;20228;-65
2022/08/05 00:33:30;;;;;;;9.03;5.97;;;;;;;21.14;68.27;101077.00;4982241;28;20219;-65
2022/08/05 00:35:55;;;;;;;7.60;6.00;;;;;;;21.11;68.75;101069.13;4981713;28;20471;-66
2022/08/05 00:38:21;;;;;;;7.33;5.80;;;;;;;20.67;67.80;101069.47;4982069;28;20683;-66
2022/08/05 00:40:52;;;;;;;7.23;5.70;;;;;;;21.12;67.09;101062.94;4981233;28;20332;-66
2022/08/05 00:43:17;;;;;;;7.00;6.23;;;;;;;20.93;66.89;101077.59;4982572;28;20453;-65
2022/08/05 00:45:43;;;;;;;7.30;5.40;;;;;;;20.96;67.40;101085.47;4981919;28;20426;-65
2022/08/05 00:48:11;;;;;;;9.00;5.70;;;;;;;20.83;67.43;101091.09;4981246;28;20295;-65
2022/08/05 00:50:39;;;;;;;5.77;5.23;;;;;;;21.11;66.48;101085.03;4981364;28;20412;-65
2022/08/05 00:53:05;;;;;;;6.17;5.47;;;;;;;20.84;66.86;101087.56;4981639;28;20797;-65
2022/08/05 00:55:30;;;;;;;9.17;5.73;;;;;;;20.88;66.30;101085.69;4981364;28;20431;-66
2022/08/05 00:57:55;;;;;;;7.70;6.10;;;;;;;20.70;67.25;101084.41;4982131;28;20425;-66
2022/08/05 01:00:21;;;;;;;6.20;5.20;;;;;;;20.74;66.33;101086.06;4981458;28;20180;-65
2022/08/05 01:02:46;;;;;;;8.20;5.80;;;;;;;20.53;66.38;101088.34;4981775;28;20223;-65
2022/08/05 01:05:11;;;;;;;6.40;5.13;;;;;;;21.00;65.25;101093.31;4982119;28;20172;-66
2022/08/05 01:07:37;;;;;;;5.10;4.60;;;;;;;20.90;65.00;101093.59;4981237;28;20216;-66
2022/08/05 01:10:02;;;;;;;7.30;5.30;;;;;;;20.91;65.02;101075.00;4980428;28;20176;-65
2022/08/05 01:12:28;;;;;;;7.37;4.80;;;;;;;20.68;64.49;101076.50;4982016;28;20431;-66
2022/08/05 01:15:02;;;;;;;5.20;4.53;;;;;;;21.05;63.94;101079.03;4964566;28;20172;-66
2022/08/05 01:17:37;;;;;;;4.90;4.40;;;;;;;20.80;63.80;101070.00;4980341;28;20255;-66
2022/08/05 01:20:23;;;;;;;7.67;4.80;;;;;;;20.91;63.79;101061.75;4980372;28;20394;-65
2022/08/05 01:23:07;;;;;;;5.57;4.67;;;;;;;20.84;63.83;101074.31;4980223;28;20426;-66
2022/08/05 01:25:51;;;;;;;5.13;4.63;;;;;;;20.72;63.89;101066.69;4980646;28;20427;-65
2022/08/05 01:28:25;;;;;;;7.63;4.50;;;;;;;20.85;63.32;101059.25;4981078;28;20513;-65
2022/08/05 01:31:21;;;;;;;5.93;4.57;;;;;;;20.69;63.28;101035.00;4980665;28;20438;-66
2022/08/05 01:34:08;;;;;;;5.00;4.50;;;;;;;20.45;63.46;101025.91;4980431;28;20432;-66
2022/08/05 01:36:38;;;;;;;10.87;4.70;;;;;;;20.73;63.03;101026.06;4980300;28;20489;-66
2022/08/05 01:39:04;;;;;;;4.57;4.17;;;;;;;20.64;63.60;101026.28;4980840;28;20724;-67
2022/08/05 01:41:32;;;;;;;5.60;4.70;;;;;;;20.57;63.32;101009.69;4980862;28;20481;-65
2022/08/05 01:43:58;;;;;;;6.03;4.80;;;;;;;20.94;63.11;101007.78;4980161;28;20227;-65
2022/08/05 01:46:24;;;;;;;5.33;4.63;;;;;;;20.89;62.60;101010.59;4980521;28;20417;-65
2022/08/05 01:48:50;;;;;;;4.97;4.50;;;;;;;20.95;62.13;101004.25;4980107;28;20676;-65
2022/08/05 01:51:17;;;;;;;5.07;4.13;;;;;;;20.56;62.86;100986.75;4979799;28;20176;-66
2022/08/05 01:53:43;;;;;;;8.30;5.03;;;;;;;20.77;62.80;100974.72;4981306;28;20437;-65
2022/08/05 01:56:10;;;;;;;7.30;4.90;;;;;;;20.73;63.35;100970.41;4979832;28;20643;-65
2022/08/05 01:58:37;;;;;;;4.63;4.20;;;;;;;20.70;62.60;100962.53;4980055;28;20394;-64
2022/08/05 02:01:03;;;;;;;5.03;4.30;;;;;;;20.69;62.61;100974.06;4980095;28;20507;-66
2022/08/05 02:03:35;;;;;;;4.60;4.20;;;;;;;20.45;63.71;100973.81;4979711;28;20401;-65
2022/08/05 02:06:04;;;;;;;9.20;4.60;;;;;;;20.93;62.04;100972.50;4980317;28;20669;-66
2022/08/05 02:08:30;;;;;;;5.30;4.70;;;;;;;20.89;62.31;100968.19;4980234;28;20719;-65
2022/08/05 02:11:03;;;;;;;6.20;4.93;;;;;;;20.67;62.53;100959.94;4979669;28;20453;-64
2022/08/05 02:13:38;;;;;;;5.70;4.47;;;;;;;20.49;62.89;100956.91;4980184;28;20502;-64
2022/08/05 02:16:11;;;;;;;4.90;4.13;;;;;;;20.88;62.27;100939.94;4980290;28;20442;-64
2022/08/05 02:18:44;;;;;;;4.67;4.27;;;;;;;20.72;62.59;100922.78;4980223;28;20448;-65
2022/08/05 02:21:15;;;;;;;6.47;4.50;;;;;;;20.90;62.38;100919.56;4979224;28;20474;-65
2022/08/05 02:23:43;;;;;;;5.23;4.43;;;;;;;20.72;62.66;100907.75;4980118;28;20399;-65
2022/08/05 02:26:10;;;;;;;6.33;5.03;;;;;;;20.75;63.45;100918.25;4980065;28;20398;-65
2022/08/05 02:28:40;;;;;;;8.10;4.80;;;;;;;20.43;63.90;100930.63;4978985;28;20399;-66
2022/08/05 02:31:11;;;;;;;6.67;4.83;;;;;;;20.27;64.54;100918.72;4979658;28;20430;-66
2022/08/05 02:33:40;;;;;;;7.77;5.20;;;;;;;20.32;64.80;100903.56;4979233;28;20409;-66
2022/08/05 02:36:10;;;;;;;8.43;4.70;;;;;;;19.94;66.12;100924.03;4980349;28;20412;-65
2022/08/05 02:38:36;;;;;;;5.47;4.70;;;;;;;20.49;64.11;100978.09;4979138;28;20405;-65
2022/08/05 02:41:03;;;;;;;10.83;5.30;;;;;;;20.67;63.90;101047.38;4979713;28;20398;-66
2022/08/05 02:43:28;;;;;;;6.53;4.53;;;;;;;21.00;61.95;101042.94;4979520;28;20211;-66
2022/08/05 02:45:54;;;;;;;6.90;5.07;;;;;;;19.86;65.15;101006.22;4978983;28;20456;-65
2022/08/05 02:48:24;;;;;;;8.60;5.30;;;;;;;19.32;69.56;101015.41;4979580;28;20514;-66
2022/08/05 02:50:50;;;;;;;7.80;5.57;;;;;;;19.76;68.49;101023.22;4979177;28;20187;-66
2022/08/05 02:53:17;;;;;;;5.43;4.63;;;;;;;18.76;71.01;101024.47;4978880;28;20423;-66
2022/08/05 02:55:44;;;;;;;5.93;5.00;;;;;;;19.90;70.84;101002.59;4979498;28;20445;-65
2022/08/05 02:58:11;;;;;;;7.33;6.00;;;;;;;19.89;72.85;101000.00;4980051;28;20415;-65
2022/08/05 03:00:38;;;;;;;10.90;5.40;;;;;;;19.91;72.90;100984.97;4979221;28;20390;-65
2022/08/05 03:03:04;;;;;;;9.93;6.20;;;;;;;20.06;73.36;100987.19;4978741;28;20435;-65
2022/08/05 03:05:30;;;;;;;7.30;5.97;;;;;;;19.85;73.04;100989.50;4979037;28;20837;-65
2022/08/05 03:07:55;;;;;;;7.57;6.27;;;;;;;19.68;74.20;100986.38;4978573;28;20550;-65
2022/08/05 03:10:21;;;;;;;7.97;6.37;;;;;;;20.24;72.71;100974.41;4978431;28;20172;-66
2022/08/05 03:12:48;;;;;;;7.30;6.57;;;;;;;20.25;72.30;100977.00;4979844;28;20183;-65
2022/08/05 03:15:13;;;;;;;7.97;5.93;;;;;;;19.88;72.43;100962.09;4979293;28;20430;-65
2022/08/05 03:17:39;;;;;;;6.87;6.27;;;;;;;20.11;73.23;100980.03;4978549;28;20510;-65
2022/08/05 03:20:05;;;;;;;7.90;6.77;;;;;;;20.02;73.62;101012.00;4979565;28;20176;-65
2022/08/05 03:22:31;;;;;;;7.63;6.00;;;;;;;20.06;73.66;101012.81;4979103;28;20180;-65
2022/08/05 03:24:57;;;;;;;7.53;6.00;;;;;;;19.74;74.49;101019.72;4979027;28;20674;-65
2022/08/05 03:27:22;;;;;;;7.63;6.90;;;;;;;19.50;76.95;101019.41;4978752;28;20433;-64
2022/08/05 03:29:48;;;;;;;6.47;5.87;;;;;;;19.45;76.54;101027.44;4978013;28;20248;-64
2022/08/05 03:32:14;;;;;;;6.97;6.27;;;;;;;19.52;75.63;101033.47;4979093;28;20188;-65
2022/08/05 03:34:43;;;;;;;6.67;6.03;;;;;;;19.32;75.71;101025.97;4979601;28;20180;-64
2022/08/05 03:37:09;;;;;;;9.23;6.77;;;;;;;19.75;74.70;101029.41;4978316;28;20485;-64
2022/08/05 03:39:34;;;;;;;7.07;6.40;;;;;;;19.28;76.60;101021.66;4978097;28;20463;-65
2022/08/05 03:41:59;;;;;;;13.33;6.73;;;;;;;19.26;77.48;101016.41;4981879;28;20198;-64
2022/08/05 03:44:25;;;;;;;6.80;6.13;;;;;;;19.05;78.14;101016.88;4982849;28;20247;-66
2022/08/05 03:46:51;;;;;;;7.10;6.40;;;;;;;19.37;76.56;101002.94;4982990;28;20204;-66
2022/08/05 03:49:16;;;;;;;7.43;6.30;;;;;;;19.07;77.87;101009.78;4983222;28;20172;-66
2022/08/05 03:51:48;;;;;;;9.23;6.90;;;;;;;19.75;74.68;101002.97;4982832;28;20186;-65
2022/08/05 03:54:39;;;;;;;8.07;7.30;;;;;;;19.09;75.88;101003.56;4982252;28;20191;-64
2022/08/05 03:57:07;;;;;;;8.07;6.80;;;;;;;19.24;76.60;100996.19;4982444;28;20424;-65
2022/08/05 03:59:36;;;;;;;7.60;6.80;;;;;;;19.27;76.09;100994.38;4981889;28;20776;-65
2022/08/05 04:02:03;;;;;;;7.97;6.53;;;;;;;19.43;75.71;100992.25;4981846;28;20497;-65
2022/08/05 04:04:30;;;;;;;12.60;6.87;;;;;;;19.34;76.00;100992.44;4981997;28;20382;-65
2022/08/05 04:06:56;;;;;;;10.07;6.97;;;;;;;19.14;75.95;100991.09;4982119;28;20871;-65
2022/08/05 04:09:22;;;;;;;7.73;7.03;;;;;;;19.34;75.39;100998.59;4982208;28;20817;-65
2022/08/05 04:11:48;;;;;;;8.83;7.20;;;;;;;19.14;75.90;101006.09;4965499;28;20405;-65
2022/08/05 04:14:14;;;;;;;8.20;7.10;;;;;;;19.07;75.90;101015.09;4982355;28;20183;-64
2022/08/05 04:16:40;;;;;;;8.00;7.03;;;;;;;19.16;76.00;100999.03;4981724;28;20211;-65
2022/08/05 04:19:05;;;;;;;10.60;7.73;;;;;;;19.24;75.26;101002.38;4981606;28;20421;-65
2022/08/05 04:21:31;;;;;;;10.57;7.30;;;;;;;19.08;75.71;101006.22;4982937;28;20165;-65
2022/08/05 04:23:59;;;;;;;8.00;6.37;;;;;;;19.39;74.57;101009.09;4982199;28;20176;-65
2022/08/05 04:26:24;;;;;;;8.10;7.30;;;;;;;19.34;75.52;101026.81;4982103;28;20187;-65
2022/08/05 04:28:49;;;;;;;12.23;7.83;;;;;;;19.39;74.97;101014.38;4982702;28;20406;-65
2022/08/05 04:31:15;;;;;;;8.17;6.30;;;;;;;19.21;75.09;101022.69;4981755;28;20231;-63
2022/08/05 04:33:40;;;;;;;10.80;6.40;;;;;;;20.94;69.86;101023.69;4982106;28;20649;-64
2022/08/05 04:36:08;;;;;;;9.17;5.90;;;;;;;21.20;68.06;101023.81;4982530;28;20557;-66
2022/08/05 04:38:35;;;;;;;9.43;5.13;;;;;;;21.85;65.26;101012.94;4982136;28;20168;-67
2022/08/05 04:41:00;;;;;;;7.27;6.10;;;;;;;21.72;65.19;101025.75;4982103;28;20474;-67
2022/08/05 04:43:26;;;;;;;7.00;6.23;;;;;;;21.73;65.27;101031.94;4982566;28;20465;-66
2022/08/05 04:45:51;;;;;;;5.60;5.10;;;;;;;21.92;64.57;101029.53;4981976;28;20187;-66
2022/08/05 04:48:16;;;;;;;6.70;5.17;;;;;;;21.91;64.98;101027.81;4981884;28;20210;-66
2022/08/05 04:50:44;;;;;;;5.60;5.00;;;;;;;21.52;65.23;101036.97;4982680;28;20172;-66
2022/08/05 04:53:10;;;;;;;7.67;4.57;;;;;;;22.31;63.30;101047.69;4982552;28;20222;-66
2022/08/05 04:55:36;;;;;;;5.77;5.00;;;;;;;21.15;66.32;101052.22;4982581;28;20419;-65
2022/08/05 04:58:04;;;;;;;9.13;5.50;;;;;;;20.92;68.49;101070.56;4982047;28;20655;-67
2022/08/05 05:00:30;;;;;;;7.67;5.40;;;;;;;22.33;64.75;101067.13;4981447;28;20424;-65
2022/08/05 05:02:55;;;;;;;5.90;5.00;;;;;;;21.38;65.72;101071.88;4981591;28;20402;-66
2022/08/05 05:05:21;;;;;;;5.50;5.00;;;;;;;21.63;67.74;101072.03;4981417;28;20741;-68
2022/08/05 05:07:46;;;;;;;8.40;5.63;;;;;;;20.19;67.88;101086.56;4981400;28;20222;-65
2022/08/05 05:10:11;;;;;;;7.40;5.70;;;;;;;20.16;70.61;101099.88;4981411;28;20536;-66
2022/08/05 05:12:37;;;;;;;6.97;6.37;;;;;;;19.85;71.96;101100.63;4981667;28;20447;-64
2022/08/05 05:15:04;;;;;;;8.03;5.80;;;;;;;19.81;72.16;101091.00;4981319;28;20441;-66
2022/08/05 05:17:39;;;;;;;8.30;6.67;;;;;;;19.74;72.07;101086.75;4981194;28;20180;-66
2022/08/05 05:20:06;;;;;;;7.20;6.50;;;;;;;20.05;71.22;101074.59;4981133;28;20408;-65
2022/08/05 05:22:31;;;;;;;10.30;6.30;;;;;;;19.71;71.80;101075.34;4980619;28;20443;-67
2022/08/05 05:24:56;;;;;;;7.00;6.30;;;;;;;20.03;71.67;101070.19;4981387;28;20431;-68
2022/08/05 05:27:22;;;;;;;7.03;6.23;;;;;;;20.12;69.53;101063.81;4980985;28;20204;-66
2022/08/05 05:29:47;;;;;;;7.83;6.70;;;;;;;20.34;69.41;101061.47;4980683;28;20181;-68
2022/08/05 05:32:12;;;;;;;15.63;12.53;;;;;;;20.51;69.20;101065.47;4980889;28;20219;-72
2022/08/05 05:34:38;;;;;;;13.03;10.60;;;;;;;20.07;70.71;101065.69;4980781;28;20176;-72
2022/08/05 05:37:03;;;;;;;8.30;7.50;;;;;;;20.37;69.46;101073.78;4980833;28;20176;-71
2022/08/05 05:39:29;;;;;;;8.70;7.30;;;;;;;19.91;70.54;101085.50;4981284;28;20176;-71
2022/08/05 05:41:54;;;;;;;8.67;7.17;;;;;;;20.08;71.42;101083.31;4980903;28;20251;-71
2022/08/05 05:44:19;;;;;;;8.40;7.60;;;;;;;20.30;70.39;101074.84;4980811;28;20514;-71
2022/08/05 05:46:45;;;;;;;12.80;7.37;;;;;;;19.80;71.57;101073.38;4981245;28;20475;-71
2022/08/05 05:49:10;;;;;;;8.23;7.30;;;;;;;19.97;71.45;101070.34;4980706;28;20231;-72
2022/08/05 05:51:35;;;;;;;8.73;7.83;;;;;;;19.85;71.42;101063.56;4980601;28;20165;-72
2022/08/05 05:54:01;;;;;;;10.20;7.40;;;;;;;19.68;71.29;101066.56;4981162;28;20249;-70
2022/08/05 05:56:30;;;;;;;8.10;7.30;;;;;;;19.73;72.67;101085.00;4980537;28;20549;-70
2022/08/05 05:58:55;;;;;;;8.73;7.70;;;;;;;19.60;73.83;101105.56;4980541;28;20259;-70
2022/08/05 06:01:21;;;;;;;9.10;7.60;;;;;;;19.76;73.06;101106.09;4980971;28;20566;-70
2022/08/05 06:03:46;;;;;;;10.57;7.63;;;;;;;19.71;73.99;101121.19;4979779;28;20183;-72
2022/08/05 06:06:11;;;;;;;8.17;7.37;;;;;;;19.55;72.54;101133.00;4980394;28;20601;-72
2022/08/05 06:08:37;;;;;;;7.60;6.90;;;;;;;19.77;72.32;101117.53;4980797;28;20211;-72
2022/08/05 06:11:02;;;;;;;11.03;8.87;;;;;;;19.72;71.08;101101.78;4980163;28;20441;-72
2022/08/05 06:13:28;;;;;;;9.20;6.80;;;;;;;19.85;70.11;101097.97;4980110;28;20173;-70
2022/08/05 06:15:53;;;;;;;7.43;6.73;;;;;;;19.81;70.05;101096.31;4980462;28;20319;-72
2022/08/05 06:18:18;;;;;;;8.97;7.40;;;;;;;20.12;69.93;101082.34;4980118;28;20176;-71
2022/08/05 06:20:44;;;;;;;8.00;6.23;;;;;;;20.04;70.08;101076.38;4979928;28;20255;-71
2022/08/05 06:23:09;;;;;;;7.00;6.30;;;;;;;19.99;68.93;101081.75;4980507;28;20201;-71
2022/08/05 06:25:34;;;;;;;9.70;6.60;;;;;;;20.61;67.87;101096.09;4979953;28;20567;-71
2022/08/05 06:28:00;;;;;;;7.97;7.27;;;;;;;20.62;69.06;101096.97;4979669;28;20199;-72
2022/08/05 06:30:26;;;;;;;6.93;6.00;;;;;;;20.39;67.97;101100.22;4979782;28;20322;-71
2022/08/05 06:32:51;;;;;;;7.30;6.37;;;;;;;20.44;66.90;101104.47;4979691;28;20192;-71
2022/08/05 06:35:17;;;;;;;6.40;5.80;;;;;;;20.83;65.46;101090.25;4980067;28;20679;-71
2022/08/05 06:37:43;;;;;;;7.80;6.87;;;;;;;20.55;66.56;101098.91;4979730;28;20543;-72
2022/08/05 06:40:09;;;;;;;7.77;5.87;;;;;;;20.92;65.51;101092.66;4979529;28;20423;-72
2022/08/05 06:42:35;;;;;;;6.80;6.10;;;;;;;21.38;64.79;101082.50;4980127;28;20184;-71
2022/08/05 06:45:00;;;;;;;6.30;5.70;;;;;;;22.32;60.70;101073.34;4979122;28;20177;-71
2022/08/05 06:47:25;;;;;;;7.40;5.50;;;;;;;22.71;60.06;101083.53;4979639;28;20459;-71
2022/08/05 06:49:51;;;;;;;5.87;4.80;;;;;;;23.67;57.07;101090.63;4979841;28;20530;-71
2022/08/05 06:52:16;;;;;;;5.40;4.90;;;;;;;23.96;55.70;101083.28;4979441;28;20168;-72
2022/08/05 06:54:42;;;;;;;6.20;4.53;;;;;;;24.32;54.42;101088.03;4979471;28;20173;-70
2022/08/05 06:57:07;;;;;;;5.67;5.20;;;;;;;23.71;55.31;101082.44;4979913;28;20211;-72
2022/08/05 06:59:32;;;;;;;9.40;5.20;;;;;;;23.50;56.01;101099.25;4979375;28;20200;-71
2022/08/05 07:01:58;;;;;;;5.47;4.57;;;;;;;23.12;57.31;101109.53;4979213;28;20172;-71
2022/08/05 07:04:23;;;;;;;7.37;5.10;;;;;;;22.80;58.36;101098.28;4979532;28;20473;-72
2022/08/05 07:06:48;;;;;;;5.73;4.50;;;;;;;22.66;58.60;101101.44;4979305;28;20232;-72
2022/08/05 07:09:14;;;;;;;5.63;5.03;;;;;;;22.26;59.83;101095.69;4979336;28;20183;-72
2022/08/05 07:11:39;;;;;;;7.50;5.30;;;;;;;21.95;61.07;101102.00;4979609;28;20164;-70
2022/08/05 07:16:49;;;;;;;6.00;5.43;;;;;;;21.92;61.13;101110.06;4978278;28;20179;-72
2022/08/05 07:19:18;;;;;;;8.33;5.97;;;;;;;21.89;61.50;101102.16;4978919;28;20419;-72
2022/08/05 07:21:45;;;;;;;7.33;6.67;;;;;;;21.76;61.94;101104.38;4979209;28;20172;-71
2022/08/05 07:24:11;;;;;;;5.40;4.90;;;;;;;21.77;61.76;101099.91;4978839;28;20456;-72
2022/08/05 07:26:36;;;;;;;5.97;5.30;;;;;;;21.50;62.30;101098.03;4978901;28;20908;-71
2022/08/05 07:29:02;;;;;;;6.10;5.10;;;;;;;21.39;63.07;101100.13;4978857;28;20267;-71
2022/08/05 07:31:27;;;;;;;10.47;6.17;;;;;;;21.34;63.29;101108.22;4978950;28;20215;-70
2022/08/05 07:33:53;;;;;;;5.60;5.07;;;;;;;21.25;62.82;101113.81;4979080;28;20386;-71
2022/08/05 07:36:18;;;;;;;8.10;5.33;;;;;;;21.26;63.91;101104.94;4979279;28;20208;-71
2022/08/05 07:38:43;;;;;;;6.23;5.10;;;;;;;21.17;64.27;101110.50;4978959;28;20223;-71
2022/08/05 07:41:11;;;;;;;7.97;4.73;;;;;;;20.70;64.27;101108.25;4978564;28;20568;-72
2022/08/05 07:43:36;;;;;;;5.83;5.20;;;;;;;20.98;64.38;101103.06;4979508;28;20449;-72
2022/08/05 07:46:02;;;;;;;7.20;4.93;;;;;;;21.07;63.38;101094.00;4978888;28;20415;-71
2022/08/05 07:48:27;;;;;;;7.00;4.93;;;;;;;20.67;64.90;101092.41;4978075;28;20207;-72
2022/08/05 07:50:53;;;;;;;4.50;4.10;;;;;;;21.66;61.45;101092.28;4979101;28;20238;-71
2022/08/05 07:53:18;;;;;;;4.90;4.50;;;;;;;21.48;62.12;101097.19;4978920;28;20198;-73
2022/08/05 07:55:43;;;;;;;5.83;4.10;;;;;;;21.52;61.90;101105.94;4978955;28;20172;-72
2022/08/05 07:58:09;;;;;;;4.17;3.77;;;;;;;21.66;61.29;101109.09;4979413;28;20169;-72
2022/08/05 08:00:34;;;;;;;4.40;4.00;;;;;;;21.58;61.50;101120.84;4978798;28;20208;-69
2022/08/05 08:02:59;;;;;;;5.17;4.20;;;;;;;21.46;61.28;101120.28;4979204;28;20176;-71
2022/08/05 08:05:26;;;;;;;7.00;5.60;;;;;;;21.53;62.20;101115.69;4978447;28;20189;-71
2022/08/05 08:07:51;;;;;;;4.40;4.00;;;;;;;21.82;60.86;101109.47;4978733;28;20200;-71
2022/08/05 08:10:17;;;;;;;4.73;4.27;;;;;;;21.41;62.05;101114.22;4977567;28;20428;-70
2022/08/05 08:12:42;;;;;;;7.60;5.03;;;;;;;21.47;62.46;101115.81;4977007;28;20451;-68
2022/08/05 08:15:09;;;;;;;5.43;4.00;;;;;;;21.72;61.07;101115.09;4978538;28;20215;-69
2022/08/05 08:17:34;;;;;;;4.10;3.70;;;;;;;22.03;61.23;101101.75;4978459;28;20168;-70
2022/08/05 08:20:03;;;;;;;4.10;3.70;;;;;;;21.92;60.95;101095.91;4978707;28;20425;-70
2022/08/05 08:22:28;;;;;;;4.80;3.90;;;;;;;21.89;60.48;101103.97;4977668;28;20172;-71
2022/08/05 08:24:53;;;;;;;6.93;4.50;;;;;;;21.14;62.82;101115.91;4978413;28;20407;-70
2022/08/05 08:27:19;;;;;;;7.13;4.40;;;;;;;20.85;63.99;101115.81;4979946;28;20200;-71
2022/08/05 08:29:45;;;;;;;4.70;4.30;;;;;;;21.33;62.58;101110.94;4981637;28;20200;-70
2022/08/05 08:32:10;;;;;;;4.33;3.93;;;;;;;21.41;62.23;101111.56;4981923;28;20264;-71
2022/08/05 08:34:35;;;;;;;5.63;4.77;;;;;;;21.74;61.17;101108.84;4982160;28;20175;-71
2022/08/05 08:37:01;;;;;;;4.00;3.70;;;;;;;21.50;61.53;101103.34;4982069;28;20168;-71
2022/08/05 08:39:26;;;;;;;6.83;4.03;;;;;;;21.41;61.52;101111.56;4981819;28;20440;-71
2022/08/05 08:41:55;;;;;;;8.30;4.03;;;;;;;21.38;61.50;101114.31;4982077;28;20207;-70
2022/08/05 08:44:22;;;;;;;4.07;3.77;;;;;;;21.40;62.09;101120.44;4981716;28;20188;-70
2022/08/05 08:46:48;;;;;;;4.23;3.83;;;;;;;21.64;61.46;101121.53;4981381;28;20490;-69
2022/08/05 08:49:14;;;;;;;5.33;4.03;;;;;;;21.22;62.07;101126.28;4981839;28;20774;-68
2022/08/05 08:51:41;;;;;;;5.37;4.10;;;;;;;21.18;62.13;101113.09;4981726;28;20273;-69
2022/08/05 08:54:08;;;;;;;6.90;4.60;;;;;;;21.24;62.37;101119.16;4981622;28;20478;-70
2022/08/05 08:56:33;;;;;;;4.93;4.00;;;;;;;21.62;60.20;101122.47;4980913;28;20478;-67
2022/08/05 08:58:59;;;;;;;5.10;3.90;;;;;;;22.48;58.47;101133.03;4981391;28;20685;-67
2022/08/05 09:01:25;;;;;;;6.90;3.90;;;;;;;22.98;56.54;101153.44;4981388;28;20164;-70
2022/08/05 09:03:52;;;;;;;8.33;5.33;;;;;;;22.53;57.27;101148.84;4981499;28;20411;-70
2022/08/05 09:06:18;;;;;;;6.80;3.90;;;;;;;22.37;57.81;101162.59;4980693;28;20172;-70
2022/08/05 09:08:43;;;;;;;4.13;3.73;;;;;;;21.71;60.73;101164.66;4981344;28;20463;-70
2022/08/05 09:11:11;;;;;;;4.60;3.83;;;;;;;22.24;59.53;101163.91;4981456;28;20211;-69
2022/08/05 09:13:36;;;;;;;4.40;4.00;;;;;;;22.23;59.65;101158.63;4980634;28;20479;-70
2022/08/05 09:16:02;;;;;;;4.10;3.70;;;;;;;21.80;61.25;101168.84;4981096;28;20427;-72
2022/08/05 09:18:28;;;;;;;4.80;4.30;;;;;;;22.36;59.31;101167.97;4981498;28;20165;-70
2022/08/05 09:20:53;;;;;;;4.23;3.83;;;;;;;22.70;58.05;101175.69;4979969;28;20168;-71
2022/08/05 09:23:19;;;;;;;6.00;3.60;;;;;;;23.05;57.47;101168.25;4981163;28;20422;-70
2022/08/05 09:25:47;;;;;;;4.40;4.00;;;;;;;23.33;56.02;101161.13;4981220;28;20478;-68
2022/08/05 09:28:18;;;;;;;5.30;3.90;;;;;;;23.33;56.80;101164.63;4980917;28;20220;-77
2022/08/05 09:30:52;;;;;;;5.30;3.93;;;;;;;23.47;55.90;101153.47;4980378;28;20471;-77
2022/08/05 09:33:18;;;;;;;5.50;3.50;;;;;;;23.27;56.58;101158.69;4981054;28;20673;-71
2022/08/05 09:35:59;;;;;;;4.43;4.03;;;;;;;23.39;56.44;101158.22;4981060;28;20427;-72
2022/08/05 09:38:25;;;;;;;4.43;3.50;;;;;;;23.86;54.97;101160.84;4979528;28;20172;-71
2022/08/05 09:40:50;;;;;;;4.63;4.23;;;;;;;23.49;56.69;101162.28;4980631;28;20507;-73
2022/08/05 09:43:27;;;;;;;6.63;4.50;;;;;;;23.65;55.66;101161.69;4981097;28;20208;-72
2022/08/05 09:45:53;;;;;;;4.20;3.80;;;;;;;23.29;57.74;101155.03;4980803;28;20168;-71
2022/08/05 09:48:32;;;;;;;5.10;4.30;;;;;;;23.03;57.75;101148.00;4980607;28;20474;-70
2022/08/05 09:51:03;;;;;;;5.20;4.70;;;;;;;23.43;56.54;101141.22;4980539;28;20287;-72
2022/08/05 09:53:29;;;;;;;7.00;4.50;;;;;;;23.26;56.98;101146.28;4979770;28;20430;-72
2022/08/05 09:55:59;;;;;;;4.20;3.53;;;;;;;23.74;55.66;101139.19;4980811;28;20412;-70
2022/08/05 09:58:26;;;;;;;5.23;4.70;;;;;;;23.56;56.27;101141.63;4980664;28;20447;-69
2022/08/05 10:00:53;;;;;;;6.83;4.40;;;;;;;23.79;55.46;101145.19;4980392;28;20817;-69
2022/08/05 10:03:19;;;;;;;4.33;3.50;;;;;;;23.79;55.05;101146.03;4980711;28;20503;-70
2022/08/05 10:05:45;;;;;;;7.10;3.80;;;;;;;23.73;55.36;101153.41;4980379;28;20825;-69
2022/08/05 10:08:11;;;;;;;5.13;3.50;;;;;;;23.87;54.63;101154.59;4980002;28;20610;-72
2022/08/05 10:10:38;;;;;;;5.10;3.57;;;;;;;23.42;56.32;101165.22;4979461;28;20270;-74
2022/08/05 10:13:05;;;;;;;5.27;4.20;;;;;;;23.10;56.68;101164.59;4979299;28;20267;-75
2022/08/05 10:15:39;;;;;;;4.70;3.83;;;;;;;23.29;56.22;101163.00;4979953;28;20800;-76
2022/08/05 10:18:06;;;;;;;7.00;4.83;;;;;;;22.96;56.88;101173.03;4979776;28;20407;-76
2022/08/05 10:20:33;;;;;;;4.87;3.70;;;;;;;22.61;58.03;101178.66;4979878;28;20412;-73
2022/08/05 10:23:00;;;;;;;4.53;4.13;;;;;;;22.98;57.34;101179.19;4979945;28;20677;-72
2022/08/05 10:25:26;;;;;;;6.33;3.53;;;;;;;22.83;56.87;101183.25;4980210;28;20404;-73
2022/08/05 10:27:55;;;;;;;4.10;3.80;;;;;;;22.07;59.67;101183.03;4979676;28;20463;-74
2022/08/05 10:30:21;;;;;;;4.20;3.77;;;;;;;22.91;57.91;101170.56;4979586;28;20535;-74
2022/08/05 10:32:46;;;;;;;5.33;3.60;;;;;;;22.82;58.48;101177.03;4979995;28;20416;-78
2022/08/05 10:35:13;;;;;;;5.87;3.87;;;;;;;23.10;57.15;101183.22;4979836;28;20252;-77
2022/08/05 10:37:39;;;;;;;3.90;3.60;;;;;;;23.04;57.36;101186.94;4979686;28;20176;-78
2022/08/05 10:40:09;;;;;;;6.30;5.67;;;;;;;22.62;57.94;101190.16;4979161;28;20415;-72
2022/08/05 10:42:37;;;;;;;4.53;3.20;;;;;;;23.13;56.89;101191.97;4979335;28;20499;-72
2022/08/05 10:45:06;;;;;;;3.73;3.40;;;;;;;22.83;57.65;101191.22;4978605;28;20416;-71
2022/08/05 10:47:35;;;;;;;7.70;4.83;;;;;;;21.73;60.93;101194.69;4978707;28;20599;-75
2022/08/05 10:50:10;;;;;;;4.07;3.70;;;;;;;22.34;60.51;101197.25;4979197;28;20454;-77
2022/08/05 10:52:36;;;;;;;6.10;3.57;;;;;;;23.20;57.66;101193.50;4979710;28;20414;-73
2022/08/05 10:55:05;;;;;;;3.73;3.43;;;;;;;23.03;58.22;101185.22;4979378;28;20498;-76
2022/08/05 10:57:31;;;;;;;5.50;4.20;;;;;;;23.00;58.91;101182.63;4979511;28;20495;-74
2022/08/05 11:00:09;;;;;;;6.80;4.00;;;;;;;23.09;58.47;101205.41;4979615;28;20515;-75
2022/08/05 11:02:34;;;;;;;4.07;3.67;;;;;;;23.02;58.14;101212.72;4979087;28;20172;-73
2022/08/05 11:05:03;;;;;;;4.13;3.70;;;;;;;22.75;58.51;101233.16;4979137;28;20454;-72
2022/08/05 11:07:28;;;;;;;4.30;3.70;;;;;;;23.27;57.59;101238.47;4978702;28;20216;-72
2022/08/05 11:09:54;;;;;;;3.50;3.20;;;;;;;23.60;56.32;101235.50;4978818;28;20439;-70
2022/08/05 11:12:25;;;;;;;6.00;3.60;;;;;;;23.30;57.39;101241.03;4979163;28;20617;-71
2022/08/05 11:15:26;;;;;;;6.77;3.67;;;;;;;22.85;58.15;101232.78;4979140;28;20441;-72
2022/08/05 11:18:06;;;;;;;7.10;6.33;;;;;;;22.71;58.74;101230.56;4977482;28;20419;-71
2022/08/05 11:20:36;;;;;;;5.90;4.43;;;;;;;22.43;58.89;101235.91;4979004;28;20871;-72
2022/08/05 11:23:30;;;;;;;6.70;4.10;;;;;;;21.51;61.20;101239.50;4979057;28;20415;-71
2022/08/05 11:26:21;;;;;;;5.10;3.80;;;;;;;22.23;60.42;101239.19;4978985;28;20789;-71
2022/08/05 11:28:51;;;;;;;5.13;3.93;;;;;;;21.58;62.98;101246.44;4979009;28;20495;-73